createdAt,value
2017-12-20T00:00:34.142Z,6.41
2017-12-20T00:01:34.191Z,6.41
2017-12-20T00:02:34.083Z,6.43
2017-12-20T00:03:34.204Z,6.43
2017-12-20T00:04:34.021Z,6.41
2017-12-20T00:05:34.119Z,6.40
2017-12-20T00:06:33.960Z,6.41
2017-12-20T00:07:34.029Z,6.41
2017-12-20T00:08:33.896Z,6.40
2017-12-20T00:09:33.940Z,6.41
2017-12-20T00:10:33.839Z,6.43
2017-12-20T00:11:33.953Z,6.44
2017-12-20T00:12:33.777Z,6.43
2017-12-20T00:13:33.864Z,6.43
2017-12-20T00:14:33.709Z,6.38
2017-12-20T00:15:33.775Z,6.44
2017-12-20T00:16:33.679Z,6.43
2017-12-20T00:17:33.791Z,6.38
2017-12-20T00:18:33.590Z,6.43
2017-12-20T00:19:33.700Z,6.40
2017-12-20T00:20:33.530Z,6.47
2017-12-20T00:21:33.613Z,6.40
2017-12-20T00:22:33.467Z,6.35
2017-12-20T00:23:33.625Z,6.53
2017-12-20T00:24:33.405Z,6.48
2017-12-20T00:25:33.534Z,6.53
2017-12-20T00:26:33.347Z,6.47
2017-12-20T00:27:33.447Z,6.44
2017-12-20T00:28:33.288Z,6.46
2017-12-20T00:29:33.361Z,6.47
2017-12-20T00:30:33.220Z,6.46
2017-12-20T00:31:33.389Z,6.53
2017-12-20T00:32:33.169Z,6.48
2017-12-20T00:33:33.285Z,6.50
2017-12-20T00:34:33.102Z,6.48
2017-12-20T00:35:33.197Z,6.50
2017-12-20T00:36:33.037Z,6.44
2017-12-20T00:37:33.109Z,6.59
2017-12-20T00:38:32.985Z,6.50
2017-12-20T00:39:33.126Z,6.61
2017-12-20T00:40:32.921Z,6.48
2017-12-20T00:41:33.035Z,6.47
2017-12-20T00:42:32.854Z,6.47
2017-12-20T00:43:32.946Z,6.61
2017-12-20T00:44:32.796Z,6.48
2017-12-20T00:45:32.958Z,6.59
2017-12-20T00:46:32.736Z,6.48
2017-12-20T00:47:32.872Z,6.46
2017-12-20T00:48:32.675Z,6.51
2017-12-20T00:49:32.697Z,6.47
2017-12-20T00:50:32.613Z,6.51
2017-12-20T00:51:32.693Z,6.53
2017-12-20T00:52:32.550Z,6.53
2017-12-20T00:53:32.708Z,6.58
2017-12-20T00:54:32.494Z,6.51
2017-12-20T00:55:32.619Z,6.51
2017-12-20T00:56:32.433Z,6.51
2017-12-20T00:57:32.530Z,6.56
2017-12-20T00:58:32.369Z,6.58
2017-12-20T00:59:32.545Z,6.51
2017-12-20T01:00:32.306Z,6.61
2017-12-20T01:01:32.457Z,6.59
2017-12-20T01:02:32.248Z,6.54
2017-12-20T01:03:32.367Z,6.58
2017-12-20T01:04:32.194Z,6.62
2017-12-20T01:05:32.279Z,6.61
2017-12-20T01:06:32.128Z,6.59
2017-12-20T01:07:32.292Z,6.51
2017-12-20T01:08:32.071Z,6.61
2017-12-20T01:09:32.205Z,6.51
2017-12-20T01:10:32.005Z,6.59
2017-12-20T01:11:32.115Z,6.59
2017-12-20T01:12:31.946Z,6.63
2017-12-20T01:13:32.130Z,6.54
2017-12-20T01:14:31.887Z,6.59
2017-12-20T01:15:32.041Z,6.58
2017-12-20T01:16:31.830Z,6.54
2017-12-20T01:17:31.952Z,6.61
2017-12-20T01:18:31.765Z,6.61
2017-12-20T01:19:31.864Z,6.65
2017-12-20T01:20:31.709Z,6.61
2017-12-20T01:21:31.877Z,6.58
2017-12-20T01:22:31.643Z,6.56
2017-12-20T01:23:31.788Z,6.65
2017-12-20T01:24:31.599Z,6.58
2017-12-20T01:25:31.598Z,6.56
2017-12-20T01:26:31.524Z,6.65
2017-12-20T01:27:31.610Z,6.65
2017-12-20T01:28:31.461Z,6.54
2017-12-20T01:29:31.524Z,6.65
2017-12-20T01:30:31.403Z,6.56
2017-12-20T01:31:31.434Z,6.61
2017-12-20T01:32:31.340Z,6.59
2017-12-20T01:33:31.347Z,6.62
2017-12-20T01:34:31.276Z,6.59
2017-12-20T01:35:31.367Z,6.59
2017-12-20T01:36:31.223Z,6.63
2017-12-20T01:37:31.273Z,6.54
2017-12-20T01:38:31.159Z,6.59
2017-12-20T01:39:31.182Z,6.62
2017-12-20T01:40:31.099Z,6.63
2017-12-20T01:41:31.196Z,6.54
2017-12-20T01:42:31.041Z,6.54
2017-12-20T01:43:31.110Z,6.54
2017-12-20T01:44:30.978Z,6.65
2017-12-20T01:45:31.020Z,6.58
2017-12-20T01:46:30.920Z,6.63
2017-12-20T01:47:30.931Z,6.62
2017-12-20T01:48:30.858Z,6.61
2017-12-20T01:49:30.945Z,6.58
2017-12-20T01:50:30.795Z,6.61
2017-12-20T01:51:30.861Z,6.56
2017-12-20T01:52:30.738Z,6.56
2017-12-20T01:53:30.776Z,6.61
2017-12-20T01:54:30.677Z,6.61
2017-12-20T01:55:30.782Z,6.61
2017-12-20T01:56:30.613Z,6.63
2017-12-20T01:57:30.699Z,6.61
2017-12-20T01:58:30.556Z,6.65
2017-12-20T01:59:30.608Z,6.63
2017-12-20T02:00:30.495Z,6.59
2017-12-20T02:01:30.514Z,6.61
2017-12-20T02:02:30.440Z,6.58
2017-12-20T02:03:30.526Z,6.66
2017-12-20T02:04:30.377Z,6.59
2017-12-20T02:05:30.443Z,6.63
2017-12-20T02:06:30.321Z,6.56
2017-12-20T02:07:30.351Z,6.61
2017-12-20T02:08:30.258Z,6.68
2017-12-20T02:09:30.366Z,6.58
2017-12-20T02:10:30.189Z,6.58
2017-12-20T02:11:30.277Z,6.54
2017-12-20T02:12:30.138Z,6.59
2017-12-20T02:13:30.189Z,6.61
2017-12-20T02:14:30.073Z,6.65
2017-12-20T02:15:30.103Z,6.66
2017-12-20T02:16:30.009Z,6.66
2017-12-20T02:17:30.118Z,6.63
2017-12-20T02:18:29.951Z,6.61
2017-12-20T02:19:30.026Z,6.63
2017-12-20T02:20:29.890Z,6.68
2017-12-20T02:21:29.943Z,6.56
2017-12-20T02:22:29.828Z,6.62
2017-12-20T02:23:29.958Z,6.68
2017-12-20T02:24:29.770Z,6.62
2017-12-20T02:25:29.862Z,6.66
2017-12-20T02:26:29.709Z,6.69
2017-12-20T02:27:29.780Z,6.66
2017-12-20T02:28:29.648Z,6.71
2017-12-20T02:29:29.685Z,6.72
2017-12-20T02:30:29.588Z,6.69
2017-12-20T02:31:29.695Z,6.68
2017-12-20T02:32:29.527Z,6.73
2017-12-20T02:33:29.608Z,6.65
2017-12-20T02:34:29.466Z,6.69
2017-12-20T02:35:29.538Z,6.71
2017-12-20T02:36:29.443Z,6.69
2017-12-20T02:37:29.532Z,6.68
2017-12-20T02:38:29.341Z,6.76
2017-12-20T02:39:29.444Z,6.68
2017-12-20T02:40:29.282Z,6.71
2017-12-20T02:41:29.360Z,6.66
2017-12-20T02:42:29.220Z,6.65
2017-12-20T02:43:29.272Z,6.66
2017-12-20T02:44:29.163Z,6.68
2017-12-20T02:45:29.282Z,6.68
2017-12-20T02:46:29.102Z,6.69
2017-12-20T02:47:29.196Z,6.69
2017-12-20T02:48:29.034Z,6.68
2017-12-20T02:49:29.108Z,6.68
2017-12-20T02:50:28.977Z,6.65
2017-12-20T02:51:29.120Z,6.71
2017-12-20T02:52:28.931Z,6.65
2017-12-20T02:53:29.035Z,6.68
2017-12-20T02:54:28.849Z,6.66
2017-12-20T02:55:28.944Z,6.62
2017-12-20T02:56:28.797Z,6.66
2017-12-20T02:57:28.856Z,6.68
2017-12-20T02:58:28.732Z,6.69
2017-12-20T02:59:28.869Z,6.68
2017-12-20T03:00:28.672Z,6.71
2017-12-20T03:01:28.780Z,6.65
2017-12-20T03:02:28.609Z,6.66
2017-12-20T03:03:28.687Z,6.66
2017-12-20T03:04:28.549Z,6.68
2017-12-20T03:05:28.710Z,6.68
2017-12-20T03:06:28.489Z,6.77
2017-12-20T03:07:28.617Z,6.77
2017-12-20T03:08:28.428Z,6.69
2017-12-20T03:09:28.528Z,6.69
2017-12-20T03:10:28.371Z,6.68
2017-12-20T03:11:28.439Z,6.73
2017-12-20T03:12:28.312Z,6.71
2017-12-20T03:13:28.452Z,6.72
2017-12-20T03:14:28.245Z,6.79
2017-12-20T03:15:28.363Z,6.65
2017-12-20T03:16:28.181Z,6.69
2017-12-20T03:17:28.284Z,6.76
2017-12-20T03:18:28.123Z,6.69
2017-12-20T03:19:28.310Z,6.76
2017-12-20T03:20:28.062Z,6.79
2017-12-20T03:21:28.234Z,6.80
2017-12-20T03:22:27.999Z,6.79
2017-12-20T03:23:28.118Z,6.76
2017-12-20T03:24:27.941Z,6.80
2017-12-20T03:25:28.030Z,6.69
2017-12-20T03:26:27.878Z,6.79
2017-12-20T03:27:28.039Z,6.71
2017-12-20T03:28:27.818Z,6.84
2017-12-20T03:29:27.947Z,6.76
2017-12-20T03:30:27.758Z,6.72
2017-12-20T03:31:27.864Z,6.72
2017-12-20T03:32:27.697Z,6.76
2017-12-20T03:33:27.783Z,6.79
2017-12-20T03:34:27.639Z,6.80
2017-12-20T03:35:27.785Z,6.69
2017-12-20T03:36:27.576Z,6.79
2017-12-20T03:37:27.702Z,6.73
2017-12-20T03:38:27.515Z,6.72
2017-12-20T03:39:27.612Z,6.72
2017-12-20T03:40:27.460Z,6.76
2017-12-20T03:41:27.625Z,6.73
2017-12-20T03:42:27.393Z,6.76
2017-12-20T03:43:27.704Z,6.77
2017-12-20T03:44:27.345Z,6.72
2017-12-20T03:45:27.450Z,6.71
2017-12-20T03:46:27.272Z,6.79
2017-12-20T03:47:27.374Z,6.76
2017-12-20T03:48:27.212Z,6.84
2017-12-20T03:49:27.372Z,6.90
2017-12-20T03:50:27.150Z,6.87
2017-12-20T03:51:27.118Z,6.76
2017-12-20T03:52:27.088Z,6.72
2017-12-20T03:53:27.092Z,6.73
2017-12-20T03:54:27.031Z,6.81
2017-12-20T03:55:27.102Z,6.77
2017-12-20T03:56:26.968Z,6.72
2017-12-20T03:57:27.017Z,6.73
2017-12-20T03:58:26.905Z,6.76
2017-12-20T03:59:26.915Z,6.79
2017-12-20T04:00:26.848Z,6.76
2017-12-20T04:01:26.835Z,6.76
2017-12-20T04:02:26.786Z,6.77
2017-12-20T04:03:27.869Z,6.79
2017-12-20T04:04:26.724Z,6.76
2017-12-20T04:05:26.752Z,6.77
2017-12-20T04:06:26.669Z,6.79
2017-12-20T04:07:26.662Z,6.76
2017-12-20T04:08:26.604Z,6.72
2017-12-20T04:09:26.675Z,6.90
2017-12-20T04:10:26.544Z,6.89
2017-12-20T04:11:26.582Z,6.77
2017-12-20T04:12:26.481Z,6.83
2017-12-20T04:13:26.496Z,6.68
2017-12-20T04:14:26.417Z,6.80
2017-12-20T04:15:26.404Z,6.73
2017-12-20T04:16:26.361Z,6.77
2017-12-20T04:17:26.419Z,6.80
2017-12-20T04:18:26.300Z,6.72
2017-12-20T04:19:26.326Z,6.81
2017-12-20T04:20:26.242Z,6.76
2017-12-20T04:21:26.240Z,6.80
2017-12-20T04:22:26.181Z,6.87
2017-12-20T04:23:26.248Z,6.76
2017-12-20T04:24:26.119Z,6.72
2017-12-20T04:25:26.162Z,6.73
2017-12-20T04:26:26.058Z,6.77
2017-12-20T04:27:26.071Z,6.72
2017-12-20T04:28:25.997Z,6.72
2017-12-20T04:29:25.985Z,6.76
2017-12-20T04:30:25.932Z,6.77
2017-12-20T04:31:25.992Z,6.73
2017-12-20T04:32:25.878Z,6.73
2017-12-20T04:33:25.901Z,6.81
2017-12-20T04:34:25.826Z,6.79
2017-12-20T04:35:25.813Z,6.76
2017-12-20T04:36:25.750Z,6.77
2017-12-20T04:37:25.824Z,6.77
2017-12-20T04:38:25.697Z,6.79
2017-12-20T04:39:25.735Z,6.80
2017-12-20T04:40:25.632Z,6.77
2017-12-20T04:41:25.646Z,6.72
2017-12-20T04:42:25.578Z,6.77
2017-12-20T04:43:25.557Z,6.86
2017-12-20T04:44:25.510Z,6.73
2017-12-20T04:45:25.567Z,6.77
2017-12-20T04:46:25.451Z,6.77
2017-12-20T04:47:25.478Z,6.72
2017-12-20T04:48:25.391Z,6.76
2017-12-20T04:49:25.388Z,6.73
2017-12-20T04:50:25.327Z,6.76
2017-12-20T04:51:25.398Z,6.73
2017-12-20T04:52:25.262Z,6.79
2017-12-20T04:53:25.311Z,6.76
2017-12-20T04:54:25.209Z,6.72
2017-12-20T04:55:25.219Z,6.72
2017-12-20T04:56:25.147Z,6.90
2017-12-20T04:57:25.127Z,6.73
2017-12-20T04:58:25.087Z,6.76
2017-12-20T04:59:25.144Z,6.81
2017-12-20T05:00:25.029Z,6.76
2017-12-20T05:01:25.051Z,6.86
2017-12-20T05:02:24.958Z,6.81
2017-12-20T05:03:24.963Z,6.72
2017-12-20T05:04:24.907Z,6.80
2017-12-20T05:05:24.975Z,6.72
2017-12-20T05:06:24.840Z,6.84
2017-12-20T05:07:24.886Z,6.68
2017-12-20T05:08:24.783Z,6.72
2017-12-20T05:09:24.796Z,6.71
2017-12-20T05:10:24.719Z,6.79
2017-12-20T05:11:24.706Z,6.80
2017-12-20T05:12:24.660Z,6.77
2017-12-20T05:13:24.720Z,6.77
2017-12-20T05:14:24.601Z,6.73
2017-12-20T05:15:24.630Z,6.73
2017-12-20T05:16:24.536Z,6.84
2017-12-20T05:17:24.540Z,6.84
2017-12-20T05:18:24.476Z,6.76
2017-12-20T05:19:24.552Z,6.89
2017-12-20T05:20:24.417Z,6.90
2017-12-20T05:21:24.458Z,6.84
2017-12-20T05:22:24.355Z,6.86
2017-12-20T05:23:24.375Z,6.76
2017-12-20T05:24:24.296Z,6.73
2017-12-20T05:25:24.280Z,6.83
2017-12-20T05:26:24.237Z,6.73
2017-12-20T05:27:24.293Z,6.89
2017-12-20T05:28:24.171Z,6.91
2017-12-20T05:29:24.204Z,6.81
2017-12-20T05:30:24.113Z,6.87
2017-12-20T05:31:24.114Z,6.86
2017-12-20T05:32:24.051Z,6.91
2017-12-20T05:33:24.124Z,6.86
2017-12-20T05:34:23.993Z,6.84
2017-12-20T05:35:24.039Z,6.90
2017-12-20T05:36:23.931Z,6.89
2017-12-20T05:37:23.946Z,6.87
2017-12-20T05:38:23.870Z,6.84
2017-12-20T05:39:23.967Z,6.87
2017-12-20T05:40:23.810Z,6.83
2017-12-20T05:41:23.872Z,6.89
2017-12-20T05:42:23.748Z,6.84
2017-12-20T05:43:23.782Z,6.90
2017-12-20T05:44:23.694Z,6.94
2017-12-20T05:45:23.693Z,6.89
2017-12-20T05:46:23.629Z,6.94
2017-12-20T05:47:23.706Z,6.95
2017-12-20T05:48:23.566Z,6.91
2017-12-20T05:49:23.616Z,6.99
2017-12-20T05:50:23.507Z,7.01
2017-12-20T05:51:23.526Z,7.02
2017-12-20T05:52:23.444Z,6.91
2017-12-20T05:53:23.437Z,6.97
2017-12-20T05:54:23.384Z,6.95
2017-12-20T05:55:23.449Z,6.91
2017-12-20T05:56:23.326Z,6.94
2017-12-20T05:57:23.360Z,6.91
2017-12-20T05:58:23.267Z,6.97
2017-12-20T05:59:23.266Z,6.97
2017-12-20T06:00:23.207Z,6.99
2017-12-20T06:01:23.280Z,7.04
2017-12-20T06:02:23.147Z,6.98
2017-12-20T06:03:23.187Z,6.97
2017-12-20T06:04:23.087Z,6.97
2017-12-20T06:05:23.099Z,6.91
2017-12-20T06:06:23.024Z,7.01
2017-12-20T06:07:23.007Z,6.98
2017-12-20T06:08:22.965Z,6.97
2017-12-20T06:09:23.015Z,6.98
2017-12-20T06:10:22.899Z,6.91
2017-12-20T06:11:22.931Z,6.99
2017-12-20T06:12:22.847Z,6.91
2017-12-20T06:13:22.839Z,6.90
2017-12-20T06:14:22.784Z,6.97
2017-12-20T06:15:22.853Z,6.97
2017-12-20T06:16:22.723Z,6.97
2017-12-20T06:17:22.766Z,6.97
2017-12-20T06:18:22.664Z,6.95
2017-12-20T06:19:22.672Z,6.95
2017-12-20T06:20:22.604Z,6.94
2017-12-20T06:21:22.681Z,6.94
2017-12-20T06:22:22.547Z,6.94
2017-12-20T06:23:22.593Z,6.98
2017-12-20T06:24:22.480Z,6.97
2017-12-20T06:25:22.505Z,6.97
2017-12-20T06:26:22.421Z,6.97
2017-12-20T06:27:22.416Z,7.01
2017-12-20T06:28:22.362Z,6.99
2017-12-20T06:29:22.432Z,6.95
2017-12-20T06:30:22.303Z,7.05
2017-12-20T06:31:22.336Z,6.95
2017-12-20T06:32:22.242Z,6.94
2017-12-20T06:33:22.256Z,7.08
2017-12-20T06:34:22.183Z,6.99
2017-12-20T06:35:22.259Z,6.99
2017-12-20T06:36:22.124Z,6.95
2017-12-20T06:37:22.170Z,6.99
2017-12-20T06:38:22.063Z,6.98
2017-12-20T06:39:22.079Z,6.95
2017-12-20T06:40:22.008Z,6.98
2017-12-20T06:41:21.991Z,6.99
2017-12-20T06:42:21.945Z,7.02
2017-12-20T06:43:22.008Z,6.97
2017-12-20T06:44:21.892Z,6.95
2017-12-20T06:45:21.914Z,7.01
2017-12-20T06:46:21.822Z,6.95
2017-12-20T06:47:21.826Z,6.99
2017-12-20T06:48:21.766Z,7.05
2017-12-20T06:49:21.837Z,7.05
2017-12-20T06:50:21.705Z,6.98
2017-12-20T06:51:21.751Z,6.95
2017-12-20T06:52:21.648Z,6.97
2017-12-20T06:53:21.651Z,7.01
2017-12-20T06:54:21.590Z,6.95
2017-12-20T06:55:21.664Z,7.09
2017-12-20T06:56:21.523Z,6.99
2017-12-20T06:57:21.589Z,6.99
2017-12-20T06:58:21.472Z,7.07
2017-12-20T06:59:21.486Z,6.98
2017-12-20T07:00:21.405Z,7.07
2017-12-20T07:01:21.397Z,7.07
2017-12-20T07:02:21.344Z,6.98
2017-12-20T07:03:21.412Z,7.04
2017-12-20T07:04:21.289Z,7.05
2017-12-20T07:05:21.325Z,7.07
2017-12-20T07:06:21.228Z,7.05
2017-12-20T07:07:21.232Z,7.04
2017-12-20T07:08:21.172Z,7.04
2017-12-20T07:09:21.246Z,7.05
2017-12-20T07:10:21.108Z,7.07
2017-12-20T07:11:21.157Z,7.04
2017-12-20T07:12:21.050Z,7.13
2017-12-20T07:13:21.067Z,7.07
2017-12-20T07:14:20.988Z,7.13
2017-12-20T07:15:21.082Z,7.12
2017-12-20T07:16:20.929Z,7.07
2017-12-20T07:17:20.992Z,7.07
2017-12-20T07:18:20.869Z,7.04
2017-12-20T07:19:20.904Z,7.04
2017-12-20T07:20:20.809Z,6.99
2017-12-20T07:21:20.804Z,7.08
2017-12-20T07:22:20.751Z,7.07
2017-12-20T07:23:20.820Z,7.05
2017-12-20T07:24:20.691Z,7.05
2017-12-20T07:25:20.729Z,7.01
2017-12-20T07:26:20.638Z,7.13
2017-12-20T07:27:20.641Z,7.07
2017-12-20T07:28:20.570Z,7.02
2017-12-20T07:29:20.651Z,7.08
2017-12-20T07:30:20.507Z,7.05
2017-12-20T07:31:20.563Z,6.99
2017-12-20T07:32:20.450Z,6.99
2017-12-20T07:33:20.474Z,7.07
2017-12-20T07:34:20.403Z,7.08
2017-12-20T07:35:20.389Z,7.01
2017-12-20T07:36:20.331Z,7.08
2017-12-20T07:37:20.395Z,6.99
2017-12-20T07:38:20.267Z,7.02
2017-12-20T07:39:20.316Z,7.09
2017-12-20T07:40:20.211Z,7.02
2017-12-20T07:41:20.218Z,7.07
2017-12-20T07:42:20.152Z,7.07
2017-12-20T07:43:20.228Z,7.07
2017-12-20T07:44:20.096Z,7.07
2017-12-20T07:45:20.201Z,7.15
2017-12-20T07:46:20.033Z,7.09
2017-12-20T07:47:20.048Z,7.08
2017-12-20T07:48:19.974Z,7.07
2017-12-20T07:49:19.959Z,7.13
2017-12-20T07:50:19.907Z,7.08
2017-12-20T07:51:19.971Z,7.15
2017-12-20T07:52:19.853Z,7.13
2017-12-20T07:53:19.883Z,7.07
2017-12-20T07:54:19.793Z,7.08
2017-12-20T07:55:19.794Z,7.09
2017-12-20T07:56:19.731Z,7.09
2017-12-20T07:57:19.805Z,7.08
2017-12-20T07:58:19.667Z,7.15
2017-12-20T07:59:19.755Z,7.17
2017-12-20T08:00:19.616Z,7.13
2017-12-20T08:01:19.626Z,7.09
2017-12-20T08:02:19.558Z,7.16
2017-12-20T08:03:19.636Z,7.19
2017-12-20T08:04:19.490Z,7.15
2017-12-20T08:05:19.546Z,7.20
2017-12-20T08:06:19.432Z,7.12
2017-12-20T08:07:19.458Z,7.15
2017-12-20T08:08:19.429Z,7.17
2017-12-20T08:09:19.366Z,7.17
2017-12-20T08:10:19.313Z,7.19
2017-12-20T08:11:19.384Z,7.17
2017-12-20T08:12:19.253Z,7.22
2017-12-20T08:13:19.290Z,7.24
2017-12-20T08:14:19.194Z,7.19
2017-12-20T08:15:19.199Z,7.17
2017-12-20T08:16:19.134Z,7.23
2017-12-20T08:17:19.213Z,7.20
2017-12-20T08:18:19.070Z,7.20
2017-12-20T08:19:19.121Z,7.27
2017-12-20T08:20:19.015Z,7.24
2017-12-20T08:21:19.045Z,7.26
2017-12-20T08:22:18.954Z,7.31
2017-12-20T08:23:18.954Z,7.20
2017-12-20T08:24:18.891Z,7.24
2017-12-20T08:25:18.963Z,7.24
2017-12-20T08:26:18.835Z,7.27
2017-12-20T08:27:18.891Z,7.26
2017-12-20T08:28:18.787Z,7.23
2017-12-20T08:29:18.775Z,7.19
2017-12-20T08:30:18.723Z,7.26
2017-12-20T08:31:18.796Z,7.24
2017-12-20T08:32:18.651Z,7.35
2017-12-20T08:33:18.696Z,7.26
2017-12-20T08:34:18.597Z,7.23
2017-12-20T08:35:18.612Z,7.24
2017-12-20T08:36:18.535Z,7.31
2017-12-20T08:37:18.517Z,7.20
2017-12-20T08:38:18.474Z,7.23
2017-12-20T08:39:18.528Z,7.26
2017-12-20T08:40:18.414Z,7.37
2017-12-20T08:41:18.440Z,7.34
2017-12-20T08:42:18.356Z,7.31
2017-12-20T08:43:18.344Z,7.24
2017-12-20T08:44:18.290Z,7.37
2017-12-20T08:45:18.361Z,7.40
2017-12-20T08:46:18.237Z,7.31
2017-12-20T08:47:18.268Z,7.37
2017-12-20T08:48:18.181Z,7.29
2017-12-20T08:49:18.184Z,7.31
2017-12-20T08:50:18.120Z,7.31
2017-12-20T08:51:18.194Z,7.29
2017-12-20T08:52:18.090Z,7.37
2017-12-20T08:53:18.103Z,7.31
2017-12-20T08:54:18.000Z,7.24
2017-12-20T08:55:18.012Z,7.37
2017-12-20T08:56:17.942Z,7.40
2017-12-20T08:57:17.932Z,7.34
2017-12-20T08:58:17.886Z,7.37
2017-12-20T08:59:17.938Z,7.35
2017-12-20T09:00:17.819Z,7.38
2017-12-20T09:01:17.849Z,7.34
2017-12-20T09:02:17.761Z,7.37
2017-12-20T09:03:17.760Z,7.44
2017-12-20T09:04:17.717Z,7.38
2017-12-20T09:05:17.772Z,7.40
2017-12-20T09:06:17.648Z,7.35
2017-12-20T09:07:17.687Z,7.37
2017-12-20T09:08:17.583Z,7.40
2017-12-20T09:09:17.596Z,7.44
2017-12-20T09:10:17.524Z,7.45
2017-12-20T09:11:17.610Z,7.45
2017-12-20T09:12:17.459Z,7.42
2017-12-20T09:13:17.516Z,7.40
2017-12-20T09:14:17.403Z,7.42
2017-12-20T09:15:17.427Z,7.44
2017-12-20T09:16:17.345Z,7.52
2017-12-20T09:17:17.333Z,7.45
2017-12-20T09:18:17.288Z,7.49
2017-12-20T09:19:17.346Z,7.42
2017-12-20T09:20:17.225Z,7.52
2017-12-20T09:21:17.258Z,7.52
2017-12-20T09:22:17.166Z,7.58
2017-12-20T09:23:17.164Z,7.56
2017-12-20T09:24:17.107Z,7.55
2017-12-20T09:25:17.180Z,7.53
2017-12-20T09:26:17.056Z,7.53
2017-12-20T09:27:17.083Z,7.52
2017-12-20T09:28:16.994Z,7.55
2017-12-20T09:29:16.999Z,7.59
2017-12-20T09:30:16.930Z,7.55
2017-12-20T09:31:17.010Z,7.55
2017-12-20T09:32:16.871Z,7.67
2017-12-20T09:33:16.917Z,7.58
2017-12-20T09:34:16.810Z,7.66
2017-12-20T09:35:16.834Z,7.63
2017-12-20T09:36:16.753Z,7.58
2017-12-20T09:37:16.736Z,7.59
2017-12-20T09:38:16.701Z,7.58
2017-12-20T09:39:16.749Z,7.66
2017-12-20T09:40:16.633Z,7.67
2017-12-20T09:41:16.660Z,7.71
2017-12-20T09:42:16.580Z,7.66
2017-12-20T09:43:16.570Z,7.72
2017-12-20T09:44:16.569Z,7.77
2017-12-20T09:45:16.587Z,7.69
2017-12-20T09:46:16.456Z,7.75
2017-12-20T09:47:16.500Z,7.75
2017-12-20T09:48:16.396Z,7.71
2017-12-20T09:49:16.403Z,7.79
2017-12-20T09:50:16.338Z,7.81
2017-12-20T09:51:16.416Z,7.69
2017-12-20T09:52:16.277Z,7.79
2017-12-20T09:53:16.350Z,7.79
2017-12-20T09:54:16.218Z,7.87
2017-12-20T09:55:16.237Z,7.82
2017-12-20T09:56:16.166Z,7.84
2017-12-20T09:57:16.152Z,7.81
2017-12-20T09:58:16.106Z,7.77
2017-12-20T09:59:16.176Z,7.85
2017-12-20T10:00:16.043Z,7.77
2017-12-20T10:01:16.082Z,7.82
2017-12-20T10:02:15.983Z,7.82
2017-12-20T10:03:15.991Z,7.77
2017-12-20T10:04:15.929Z,7.78
2017-12-20T10:05:15.999Z,7.81
2017-12-20T10:06:15.863Z,7.85
2017-12-20T10:07:15.903Z,7.81
2017-12-20T10:08:15.816Z,7.84
2017-12-20T10:09:15.818Z,7.85
2017-12-20T10:10:15.793Z,7.87
2017-12-20T10:11:15.825Z,7.85
2017-12-20T10:12:15.688Z,7.93
2017-12-20T10:13:15.716Z,7.85
2017-12-20T10:14:15.645Z,7.90
2017-12-20T10:15:15.645Z,7.93
2017-12-20T10:16:15.571Z,7.93
2017-12-20T10:17:15.552Z,7.84
2017-12-20T10:18:15.514Z,7.94
2017-12-20T10:19:15.489Z,7.87
2017-12-20T10:20:15.453Z,7.89
2017-12-20T10:21:16.423Z,7.89
2017-12-20T10:22:15.407Z,7.93
2017-12-20T10:23:15.505Z,7.85
2017-12-20T10:24:15.339Z,7.89
2017-12-20T10:25:15.310Z,7.94
2017-12-20T10:26:15.278Z,8.02
2017-12-20T10:27:15.256Z,7.97
2017-12-20T10:28:15.220Z,8.02
2017-12-20T10:29:15.194Z,7.94
2017-12-20T10:30:15.192Z,7.99
2017-12-20T10:31:15.135Z,8.00
2017-12-20T10:32:15.207Z,8.04
2017-12-20T10:33:15.082Z,7.97
2017-12-20T10:34:15.117Z,8.04
2017-12-20T10:35:15.033Z,8.00
2017-12-20T10:36:15.030Z,8.02
2017-12-20T10:37:14.973Z,8.02
2017-12-20T10:38:14.940Z,8.03
2017-12-20T10:39:14.896Z,7.99
2017-12-20T10:40:15.054Z,8.00
2017-12-20T10:41:14.838Z,7.97
2017-12-20T10:42:14.970Z,7.96
2017-12-20T10:43:14.778Z,8.02
2017-12-20T10:44:14.751Z,8.07
2017-12-20T10:45:14.889Z,7.97
2017-12-20T10:46:14.686Z,7.96
2017-12-20T10:47:14.798Z,8.04
2017-12-20T10:48:14.635Z,7.94
2017-12-20T10:49:14.614Z,8.02
2017-12-20T10:50:14.575Z,7.96
2017-12-20T10:51:14.743Z,8.03
2017-12-20T10:52:14.520Z,8.04
2017-12-20T10:53:14.636Z,8.03
2017-12-20T10:54:14.458Z,8.07
2017-12-20T10:55:14.547Z,8.11
2017-12-20T10:56:14.397Z,8.08
2017-12-20T10:57:14.561Z,8.11
2017-12-20T10:58:14.341Z,8.11
2017-12-20T10:59:14.476Z,8.14
2017-12-20T11:00:14.281Z,8.08
2017-12-20T11:01:14.256Z,8.14
2017-12-20T11:02:14.395Z,8.11
2017-12-20T11:03:14.217Z,8.08
2017-12-20T11:04:14.301Z,8.14
2017-12-20T11:05:14.138Z,8.10
2017-12-20T11:06:14.110Z,8.07
2017-12-20T11:07:14.078Z,8.04
2017-12-20T11:08:14.232Z,8.07
2017-12-20T11:09:14.018Z,8.12
2017-12-20T11:10:14.140Z,8.04
2017-12-20T11:11:13.962Z,8.07
2017-12-20T11:12:13.950Z,8.03
2017-12-20T11:13:13.901Z,8.04
2017-12-20T11:14:13.869Z,8.04
2017-12-20T11:15:13.969Z,7.99
2017-12-20T11:16:13.815Z,8.08
2017-12-20T11:17:13.980Z,8.08
2017-12-20T11:18:13.757Z,8.08
2017-12-20T11:19:13.720Z,8.12
2017-12-20T11:20:13.917Z,8.21
2017-12-20T11:21:13.674Z,8.17
2017-12-20T11:22:13.814Z,8.12
2017-12-20T11:23:13.610Z,8.15
2017-12-20T11:24:13.625Z,8.08
2017-12-20T11:25:13.555Z,8.08
2017-12-20T11:26:13.735Z,8.21
2017-12-20T11:27:13.512Z,8.14
2017-12-20T11:28:13.548Z,8.14
2017-12-20T11:29:13.434Z,8.11
2017-12-20T11:30:13.406Z,8.15
2017-12-20T11:31:13.375Z,8.12
2017-12-20T11:32:13.475Z,8.11
2017-12-20T11:33:13.318Z,8.18
2017-12-20T11:34:13.386Z,8.18
2017-12-20T11:35:13.260Z,8.20
2017-12-20T11:36:13.297Z,8.20
2017-12-20T11:37:13.200Z,8.18
2017-12-20T11:38:13.208Z,8.17
2017-12-20T11:39:13.148Z,8.17
2017-12-20T11:40:13.224Z,8.18
2017-12-20T11:41:13.083Z,8.20
2017-12-20T11:42:13.132Z,8.21
2017-12-20T11:43:13.038Z,8.20
2017-12-20T11:44:13.048Z,8.20
2017-12-20T11:45:12.964Z,8.17
2017-12-20T11:46:13.063Z,8.21
2017-12-20T11:47:12.915Z,8.20
2017-12-20T11:48:12.970Z,8.29
2017-12-20T11:49:12.850Z,8.22
2017-12-20T11:50:12.884Z,8.22
2017-12-20T11:51:12.796Z,8.32
2017-12-20T11:52:12.896Z,8.25
2017-12-20T11:53:12.742Z,8.26
2017-12-20T11:54:12.808Z,8.28
2017-12-20T11:55:12.676Z,8.28
2017-12-20T11:56:12.718Z,8.29
2017-12-20T11:57:12.617Z,8.32
2017-12-20T11:58:12.630Z,8.22
2017-12-20T11:59:12.563Z,8.32
2017-12-20T12:00:12.651Z,8.30
2017-12-20T12:01:12.513Z,8.37
2017-12-20T12:02:12.554Z,8.35
2017-12-20T12:03:12.446Z,8.47
2017-12-20T12:04:12.468Z,8.36
2017-12-20T12:05:12.387Z,8.44
2017-12-20T12:06:12.379Z,8.48
2017-12-20T12:07:12.338Z,8.44
2017-12-20T12:08:12.305Z,8.40
2017-12-20T12:09:12.273Z,8.42
2017-12-20T12:10:12.304Z,8.39
2017-12-20T12:11:12.214Z,8.39
2017-12-20T12:12:12.317Z,8.39
2017-12-20T12:13:12.152Z,8.37
2017-12-20T12:14:12.124Z,8.36
2017-12-20T12:15:12.235Z,8.36
2017-12-20T12:16:12.071Z,8.39
2017-12-20T12:17:12.148Z,8.36
2017-12-20T12:18:12.014Z,8.35
2017-12-20T12:19:12.059Z,8.36
2017-12-20T12:20:11.958Z,8.37
2017-12-20T12:21:12.075Z,8.35
2017-12-20T12:22:11.893Z,8.35
2017-12-20T12:23:11.959Z,8.39
2017-12-20T12:24:11.842Z,8.42
2017-12-20T12:25:11.910Z,8.45
2017-12-20T12:26:11.786Z,8.37
2017-12-20T12:27:11.928Z,8.42
2017-12-20T12:28:11.727Z,8.45
2017-12-20T12:29:11.688Z,8.40
2017-12-20T12:30:11.832Z,8.47
2017-12-20T12:31:11.640Z,8.42
2017-12-20T12:32:11.736Z,8.39
2017-12-20T12:33:11.609Z,8.36
2017-12-20T12:34:11.604Z,8.40
2017-12-20T12:35:11.523Z,8.45
2017-12-20T12:36:11.609Z,8.47
2017-12-20T12:37:11.464Z,8.37
2017-12-20T12:38:11.577Z,8.39
2017-12-20T12:39:11.408Z,8.39
2017-12-20T12:40:11.492Z,8.40
2017-12-20T12:41:11.351Z,8.40
2017-12-20T12:42:11.405Z,8.36
2017-12-20T12:43:11.294Z,8.40
2017-12-20T12:44:11.417Z,8.39
2017-12-20T12:45:11.228Z,8.35
2017-12-20T12:46:11.326Z,8.36
2017-12-20T12:47:11.180Z,8.36
2017-12-20T12:48:11.242Z,8.37
2017-12-20T12:49:11.119Z,8.36
2017-12-20T12:50:11.251Z,8.40
2017-12-20T12:51:11.068Z,8.45
2017-12-20T12:52:11.163Z,8.36
2017-12-20T12:53:11.001Z,8.35
2017-12-20T12:54:11.074Z,8.36
2017-12-20T12:55:10.945Z,8.37
2017-12-20T12:56:11.099Z,8.33
2017-12-20T12:57:10.889Z,8.42
2017-12-20T12:58:11.193Z,8.37
2017-12-20T12:59:10.827Z,8.36
2017-12-20T13:00:10.907Z,8.42
2017-12-20T13:01:10.771Z,8.37
2017-12-20T13:02:10.922Z,8.40
2017-12-20T13:03:10.709Z,8.37
2017-12-20T13:04:10.831Z,8.39
2017-12-20T13:05:10.650Z,8.45
2017-12-20T13:06:10.746Z,8.45
2017-12-20T13:07:10.597Z,8.50
2017-12-20T13:08:10.654Z,8.39
2017-12-20T13:09:10.541Z,8.47
2017-12-20T13:10:10.672Z,8.45
2017-12-20T13:11:10.482Z,8.47
2017-12-20T13:12:10.583Z,8.50
2017-12-20T13:13:10.427Z,8.47
2017-12-20T13:14:10.497Z,8.51
2017-12-20T13:15:10.367Z,8.50
2017-12-20T13:16:10.511Z,8.51
2017-12-20T13:17:10.309Z,8.51
2017-12-20T13:18:10.417Z,8.51